createdAt,value
2022-12-26T00:00:12.150Z,40.75
2022-12-26T00:02:59.590Z,38.03
2022-12-26T00:05:27.556Z,35.25
2022-12-26T00:07:54.727Z,41.63
2022-12-26T00:10:22.117Z,39.03
2022-12-26T00:12:49.295Z,34.85
2022-12-26T00:15:16.736Z,44.92
2022-12-26T00:17:43.884Z,42.63
2022-12-26T00:20:11.701Z,40.20
2022-12-26T00:22:38.844Z,30.58
2022-12-26T00:25:06.989Z,37.40
2022-12-26T00:27:34.163Z,37.00
2022-12-26T00:30:01.527Z,31.63
2022-12-26T00:32:28.753Z,32.38
2022-12-26T00:34:56.206Z,27.20
2022-12-26T00:37:23.436Z,34.00
2022-12-26T00:39:50.972Z,42.38
2022-12-26T00:42:18.184Z,40.30
2022-12-26T00:44:45.607Z,44.13
2022-12-26T00:47:12.810Z,41.08
2022-12-26T00:50:13.707Z,40.08
2022-12-26T00:52:27.436Z,36.10
2022-12-26T00:54:54.924Z,35.15
2022-12-26T00:57:22.169Z,38.35
2022-12-26T00:59:49.605Z,35.90
2022-12-26T01:02:35.645Z,36.97
2022-12-26T01:05:03.417Z,33.03
2022-12-26T01:07:34.529Z,32.80
2022-12-26T01:10:22.016Z,33.53
2022-12-26T01:12:49.125Z,31.48
2022-12-26T01:15:16.650Z,35.00
2022-12-26T01:17:43.792Z,29.80
2022-12-26T01:20:11.569Z,32.38
2022-12-26T01:22:38.746Z,28.52
2022-12-26T01:25:06.885Z,29.85
2022-12-26T01:27:34.036Z,34.42
2022-12-26T01:30:01.481Z,30.35
2022-12-26T01:32:28.836Z,35.03
2022-12-26T01:34:56.391Z,34.22
2022-12-26T01:37:23.968Z,32.10
2022-12-26T01:39:52.277Z,31.80
2022-12-26T01:42:22.052Z,44.05
2022-12-26T01:45:03.130Z,30.75
2022-12-26T01:50:07.117Z,33.33
2022-12-26T01:52:39.889Z,38.00
2022-12-26T01:55:11.490Z,31.58
2022-12-26T01:57:43.065Z,32.25
2022-12-26T02:00:11.729Z,32.25
2022-12-26T02:03:01.736Z,29.90
2022-12-26T02:05:36.855Z,36.03
2022-12-26T02:08:07.143Z,36.08
2022-12-26T02:10:43.103Z,30.98
2022-12-26T02:13:11.761Z,32.53
2022-12-26T02:15:40.601Z,32.00
2022-12-26T02:18:07.842Z,37.10
2022-12-26T02:20:53.889Z,32.90
2022-12-26T02:23:41.231Z,31.20
2022-12-26T02:26:21.256Z,34.80
2022-12-26T02:29:45.550Z,36.45
2022-12-26T02:32:49.843Z,31.42
2022-12-26T02:35:45.825Z,30.38
2022-12-26T02:39:00.562Z,38.25
2022-12-26T02:41:52.860Z,30.10
2022-12-26T02:44:41.600Z,29.33
2022-12-26T02:47:15.813Z,33.05
2022-12-26T02:50:26.204Z,30.23
2022-12-26T02:53:23.951Z,45.33
2022-12-26T02:56:15.250Z,33.42
2022-12-26T02:59:12.556Z,31.30
2022-12-26T03:02:04.530Z,34.45
2022-12-26T03:04:54.040Z,32.07
2022-12-26T03:07:45.692Z,38.20
2022-12-26T03:10:38.493Z,31.35
2022-12-26T03:13:12.338Z,34.85
2022-12-26T03:16:07.223Z,36.28
2022-12-26T03:18:59.234Z,37.08
2022-12-26T03:21:30.424Z,37.78
2022-12-26T03:23:57.958Z,35.47
2022-12-26T03:26:42.381Z,33.65
2022-12-26T03:29:31.369Z,28.42
2022-12-26T03:32:00.845Z,31.42
2022-12-26T03:34:28.761Z,35.08
2022-12-26T03:37:10.621Z,35.75
2022-12-26T03:40:33.905Z,34.63
2022-12-26T03:43:27.599Z,37.97
2022-12-26T03:46:42.605Z,38.58
2022-12-26T03:49:35.215Z,35.30
2022-12-26T03:52:28.912Z,33.58
2022-12-26T03:55:34.989Z,30.65
2022-12-26T03:58:30.178Z,37.67
2022-12-26T04:01:20.088Z,31.23
2022-12-26T04:04:07.914Z,36.10
2022-12-26T04:07:13.136Z,31.33
2022-12-26T04:10:25.395Z,36.15
2022-12-26T04:13:13.105Z,32.97
2022-12-26T04:16:13.343Z,35.42
2022-12-26T04:19:26.559Z,28.98
2022-12-26T04:22:27.813Z,32.30
2022-12-26T04:25:49.466Z,33.25
2022-12-26T04:28:38.681Z,32.00
2022-12-26T04:31:33.172Z,29.98
2022-12-26T04:34:24.751Z,28.48
2022-12-26T04:37:17.791Z,34.05
2022-12-26T04:40:07.431Z,30.88
2022-12-26T04:42:54.547Z,33.53
2022-12-26T04:45:23.476Z,31.98
2022-12-26T04:48:09.895Z,41.40
2022-12-26T04:50:48.448Z,35.78
2022-12-26T04:53:16.458Z,32.47
2022-12-26T04:55:44.941Z,30.80
2022-12-26T04:58:12.569Z,33.58
2022-12-26T05:00:41.039Z,32.92
2022-12-26T05:03:32.708Z,31.58
2022-12-26T05:06:19.177Z,37.10
2022-12-26T05:09:05.867Z,32.10
2022-12-26T05:11:35.482Z,34.25
2022-12-26T05:14:02.768Z,29.10
2022-12-26T05:16:48.484Z,30.42
2022-12-26T05:19:36.312Z,35.22
2022-12-26T05:22:23.229Z,27.50
2022-12-26T05:25:09.570Z,28.67
2022-12-26T05:28:02.579Z,32.70
2022-12-26T05:33:15.944Z,32.22
2022-12-26T05:35:43.223Z,26.65
2022-12-26T05:38:11.846Z,35.47
2022-12-26T05:40:39.000Z,26.52
2022-12-26T05:43:06.467Z,34.90
2022-12-26T05:45:33.623Z,29.30
2022-12-26T05:48:01.929Z,53.55
2022-12-26T05:50:29.493Z,45.20
2022-12-26T05:52:58.638Z,36.67
2022-12-26T05:55:26.702Z,34.25
2022-12-26T05:57:54.128Z,30.92
2022-12-26T06:00:21.704Z,28.40
2022-12-26T06:02:49.445Z,24.77
2022-12-26T06:05:17.183Z,26.17
2022-12-26T06:07:45.068Z,31.05
2022-12-26T06:10:12.461Z,27.75
2022-12-26T06:12:40.314Z,29.05
2022-12-26T06:15:07.934Z,25.83
2022-12-26T06:17:35.344Z,29.45
2022-12-26T06:20:02.581Z,22.48
2022-12-26T06:22:30.764Z,26.90
2022-12-26T06:24:57.969Z,26.90
2022-12-26T06:27:25.407Z,24.65
2022-12-26T06:29:52.550Z,18.70
2022-12-26T06:32:20.052Z,24.27
2022-12-26T06:34:48.111Z,21.73
2022-12-26T06:37:15.820Z,30.02
2022-12-26T06:39:42.981Z,29.30
2022-12-26T06:42:10.422Z,28.10
2022-12-26T06:44:38.384Z,24.00
2022-12-26T06:47:05.931Z,27.52
2022-12-26T06:49:33.532Z,28.27
2022-12-26T06:52:00.977Z,19.42
2022-12-26T06:54:28.080Z,25.02
2022-12-26T06:56:55.446Z,20.83
2022-12-26T06:59:22.688Z,21.73
2022-12-26T07:01:50.177Z,21.98
2022-12-26T07:04:17.456Z,21.90
2022-12-26T07:06:44.908Z,28.10
2022-12-26T07:09:16.879Z,18.67
2022-12-26T07:14:16.439Z,21.80
2022-12-26T07:16:47.852Z,22.50
2022-12-26T07:19:16.703Z,19.65
2022-12-26T07:21:44.547Z,22.77
2022-12-26T07:24:17.043Z,23.98
2022-12-26T07:26:45.857Z,15.95
2022-12-26T07:29:13.735Z,18.10
2022-12-26T07:31:41.715Z,20.13
2022-12-26T07:34:09.144Z,19.60
2022-12-26T07:36:36.618Z,20.17
2022-12-26T07:39:04.034Z,17.05
2022-12-26T07:41:49.741Z,18.08
2022-12-26T07:44:17.129Z,17.52
2022-12-26T07:46:46.771Z,18.35
2022-12-26T07:49:14.524Z,18.73
2022-12-26T07:51:42.448Z,12.30
2022-12-26T07:54:11.695Z,17.27
2022-12-26T07:56:40.428Z,15.30
2022-12-26T07:59:09.732Z,17.30
2022-12-26T08:01:37.163Z,15.55
2022-12-26T08:04:04.971Z,22.80
2022-12-26T08:06:32.556Z,20.23
2022-12-26T08:08:59.767Z,15.60
2022-12-26T08:11:31.635Z,15.15
2022-12-26T08:13:58.811Z,13.93
2022-12-26T08:16:26.329Z,17.65
2022-12-26T08:18:53.809Z,22.88
2022-12-26T08:21:21.263Z,16.15
2022-12-26T08:23:48.609Z,18.65
2022-12-26T08:26:20.894Z,12.30
2022-12-26T08:28:48.743Z,20.63
2022-12-26T08:31:16.641Z,12.27
2022-12-26T08:33:43.867Z,13.80
2022-12-26T08:36:13.125Z,15.05
2022-12-26T08:38:40.948Z,15.98
2022-12-26T08:41:08.887Z,16.52
2022-12-26T08:44:16.487Z,13.98
2022-12-26T08:46:24.261Z,16.70
2022-12-26T08:48:52.056Z,17.38
2022-12-26T08:51:22.608Z,14.95
2022-12-26T08:53:51.075Z,19.67
2022-12-26T08:56:21.548Z,15.18
2022-12-26T08:58:48.964Z,13.75
2022-12-26T09:01:19.075Z,15.38
2022-12-26T09:03:47.168Z,14.07
2022-12-26T09:06:15.621Z,14.38
2022-12-26T09:08:43.094Z,16.38
2022-12-26T09:11:16.532Z,16.15
2022-12-26T09:13:44.524Z,10.65
2022-12-26T09:16:24.493Z,14.90
2022-12-26T09:19:00.968Z,13.00
2022-12-26T09:21:29.636Z,18.45
2022-12-26T09:24:01.734Z,14.63
2022-12-26T09:28:57.046Z,15.35
2022-12-26T09:31:31.519Z,15.15
2022-12-26T09:34:00.837Z,12.43
2022-12-26T09:36:30.660Z,11.80
2022-12-26T09:38:59.069Z,14.57
2022-12-26T09:41:44.180Z,12.73
2022-12-26T09:44:35.611Z,11.20
2022-12-26T09:47:36.609Z,13.90
2022-12-26T09:50:09.364Z,15.95
2022-12-26T09:52:51.749Z,15.75
2022-12-26T09:55:26.926Z,12.13
2022-12-26T09:57:58.923Z,18.58
2022-12-26T10:00:31.326Z,14.02
2022-12-26T10:02:59.891Z,13.75
2022-12-26T10:05:38.170Z,11.60
2022-12-26T10:08:11.335Z,11.75
2022-12-26T10:10:52.036Z,12.63
2022-12-26T10:13:28.237Z,12.65
2022-12-26T10:16:07.716Z,10.73
2022-12-26T10:19:16.731Z,10.82
2022-12-26T10:22:00.855Z,11.05
2022-12-26T10:24:33.330Z,11.57
2022-12-26T10:27:05.274Z,16.45
2022-12-26T10:29:41.332Z,13.05
2022-12-26T10:32:28.048Z,11.15
2022-12-26T10:34:57.044Z,12.18
2022-12-26T10:37:35.646Z,9.85
2022-12-26T10:40:12.235Z,10.20
2022-12-26T10:42:45.128Z,9.05
2022-12-26T10:45:23.893Z,14.13
2022-12-26T10:47:51.970Z,10.60
2022-12-26T10:50:27.813Z,10.70
2022-12-26T10:52:56.966Z,8.85
2022-12-26T10:55:35.107Z,10.73
2022-12-26T10:58:32.504Z,11.32
2022-12-26T11:01:28.646Z,16.63
2022-12-26T11:04:01.142Z,10.18
2022-12-26T11:06:42.889Z,8.35
2022-12-26T11:09:45.708Z,10.83
2022-12-26T11:12:41.753Z,14.43
2022-12-26T11:15:40.977Z,10.88
2022-12-26T11:18:31.846Z,10.80
2022-12-26T11:21:17.637Z,13.10
2022-12-26T11:23:46.327Z,13.73
2022-12-26T11:26:26.239Z,11.73
2022-12-26T11:29:13.635Z,10.40
2022-12-26T11:31:43.720Z,10.95
2022-12-26T11:34:18.101Z,12.52
2022-12-26T11:36:48.384Z,10.40
2022-12-26T11:39:26.917Z,11.90
2022-12-26T11:41:55.365Z,9.50
2022-12-26T11:44:34.655Z,11.43
2022-12-26T11:47:10.319Z,6.05
2022-12-26T11:49:56.326Z,13.50
2022-12-26T11:52:58.814Z,12.82
2022-12-26T11:55:33.469Z,11.75
2022-12-26T11:58:09.727Z,7.35
2022-12-26T12:00:38.854Z,12.45
2022-12-26T12:03:27.315Z,8.25
2022-12-26T12:06:28.284Z,8.98
2022-12-26T12:09:06.250Z,6.97
2022-12-26T12:11:39.651Z,9.45
2022-12-26T12:14:18.006Z,6.25
2022-12-26T12:16:56.331Z,6.78
2022-12-26T12:19:46.697Z,8.10
2022-12-26T12:22:27.497Z,9.00
2022-12-26T12:25:07.230Z,7.63
2022-12-26T12:27:46.351Z,7.43
2022-12-26T12:30:20.264Z,8.73
2022-12-26T12:32:57.507Z,9.95
2022-12-26T12:35:39.288Z,10.00
2022-12-26T12:38:16.496Z,8.48
2022-12-26T12:41:16.812Z,10.82
2022-12-26T12:44:14.572Z,10.32
2022-12-26T12:47:00.112Z,15.13
2022-12-26T12:49:53.534Z,11.82
2022-12-26T12:52:57.361Z,11.77
2022-12-26T12:55:39.537Z,14.32
2022-12-26T12:58:29.894Z,7.93
2022-12-26T13:01:14.248Z,15.67
2022-12-26T13:03:55.342Z,5.82
2022-12-26T13:06:47.523Z,7.40
2022-12-26T13:09:32.681Z,10.65
2022-12-26T13:12:06.503Z,9.82
2022-12-26T13:14:40.185Z,8.32
2022-12-26T13:17:23.434Z,9.88
2022-12-26T13:20:03.498Z,7.35
2022-12-26T13:23:03.291Z,10.77
2022-12-26T13:25:44.724Z,10.25
2022-12-26T13:28:18.736Z,8.88
2022-12-26T13:30:52.384Z,10.90
2022-12-26T13:33:20.055Z,9.32
2022-12-26T13:35:57.977Z,10.75
2022-12-26T13:38:55.909Z,15.13
2022-12-26T13:41:44.720Z,12.15
2022-12-26T13:44:21.238Z,10.13
2022-12-26T13:46:48.305Z,16.65
2022-12-26T13:49:38.771Z,12.75
2022-12-26T13:52:11.982Z,11.27
2022-12-26T13:54:48.609Z,11.20
2022-12-26T13:57:44.573Z,11.60
2022-12-26T14:00:33.530Z,10.00
2022-12-26T14:03:32.817Z,14.93
2022-12-26T14:06:22.362Z,16.48
2022-12-26T14:09:23.558Z,13.95
2022-12-26T14:12:15.633Z,19.48
2022-12-26T14:14:48.274Z,15.38
2022-12-26T14:17:30.068Z,11.15
2022-12-26T14:20:09.047Z,11.00
2022-12-26T14:23:12.280Z,10.13
2022-12-26T14:26:00.781Z,8.23
2022-12-26T14:28:47.485Z,8.98
2022-12-26T14:31:29.440Z,13.70
2022-12-26T14:34:18.193Z,7.95
2022-12-26T14:36:59.802Z,10.63
2022-12-26T14:40:05.931Z,11.32
2022-12-26T14:43:11.637Z,12.50
2022-12-26T14:45:43.621Z,9.73
2022-12-26T14:48:16.974Z,14.52
2022-12-26T14:51:04.272Z,12.27
2022-12-26T14:53:35.335Z,11.98
2022-12-26T14:56:34.356Z,13.52
2022-12-26T14:59:32.304Z,8.05
2022-12-26T15:02:08.653Z,11.40
2022-12-26T15:04:41.744Z,11.18
2022-12-26T15:07:30.739Z,12.45
2022-12-26T15:10:39.086Z,12.13
2022-12-26T15:13:42.449Z,8.98
2022-12-26T15:16:48.559Z,15.93
2022-12-26T15:19:27.605Z,14.48
2022-12-26T15:22:13.463Z,10.55
2022-12-26T15:25:20.218Z,12.50
2022-12-26T15:28:31.210Z,12.48
2022-12-26T15:31:19.393Z,11.35
2022-12-26T15:33:49.241Z,13.95
2022-12-26T15:36:19.342Z,12.88
2022-12-26T15:39:21.382Z,14.95
2022-12-26T15:42:14.382Z,15.32
2022-12-26T15:44:46.524Z,13.25
2022-12-26T15:47:50.505Z,13.32
2022-12-26T15:50:25.000Z,11.63
2022-12-26T15:53:19.476Z,16.45
2022-12-26T15:55:57.346Z,10.77
2022-12-26T15:59:18.758Z,16.00
2022-12-26T16:01:48.792Z,15.10
2022-12-26T16:04:30.899Z,12.77
2022-12-26T16:07:25.229Z,9.50
2022-12-26T16:09:57.028Z,13.85
2022-12-26T16:12:30.032Z,10.65
2022-12-26T16:15:16.673Z,13.30
2022-12-26T16:17:44.148Z,16.13
2022-12-26T16:20:46.540Z,16.63
2022-12-26T16:23:20.609Z,12.40
2022-12-26T16:25:56.133Z,12.65
2022-12-26T16:28:31.332Z,10.70
2022-12-26T16:30:59.316Z,9.82
2022-12-26T16:33:31.342Z,22.13
2022-12-26T16:38:31.164Z,17.83
2022-12-26T16:41:00.486Z,16.23
2022-12-26T16:43:34.475Z,20.60
2022-12-26T16:46:06.790Z,20.98
2022-12-26T16:48:35.925Z,13.48
2022-12-26T16:51:06.692Z,18.63
2022-12-26T16:53:36.412Z,18.23
2022-12-26T16:56:31.135Z,22.08
2022-12-26T16:59:28.575Z,26.70
2022-12-26T17:01:59.210Z,17.02
2022-12-26T17:04:28.980Z,17.52
2022-12-26T17:06:58.601Z,16.90
2022-12-26T17:09:28.977Z,17.02
2022-12-26T17:12:07.729Z,15.77
2022-12-26T17:14:39.091Z,15.80
2022-12-26T17:17:26.035Z,15.70
2022-12-26T17:19:56.527Z,13.98
2022-12-26T17:22:30.854Z,19.65
2022-12-26T17:25:31.328Z,14.68
2022-12-26T17:28:10.986Z,16.45
2022-12-26T17:30:41.043Z,17.42
2022-12-26T17:33:19.425Z,15.15
2022-12-26T17:38:40.903Z,14.10
2022-12-26T17:41:09.760Z,12.70
2022-12-26T17:43:39.436Z,13.65
2022-12-26T17:46:13.371Z,23.25
2022-12-26T17:48:41.894Z,16.27
2022-12-26T17:51:17.280Z,15.18
2022-12-26T17:53:50.209Z,13.45
2022-12-26T17:56:21.139Z,18.60
2022-12-26T17:58:49.587Z,15.43
2022-12-26T18:01:20.936Z,15.82
2022-12-26T18:06:17.249Z,19.65
2022-12-26T18:08:45.338Z,15.90
2022-12-26T18:11:14.227Z,17.52
2022-12-26T18:13:42.350Z,15.55
2022-12-26T18:16:16.630Z,15.35
2022-12-26T18:18:45.433Z,13.35
2022-12-26T18:21:15.479Z,16.70
2022-12-26T18:23:43.258Z,17.35
2022-12-26T18:26:25.626Z,14.73
2022-12-26T18:28:54.012Z,13.25
2022-12-26T18:31:21.473Z,15.32
2022-12-26T18:33:49.190Z,14.93
2022-12-26T18:36:17.649Z,18.60
2022-12-26T18:38:45.615Z,14.50
2022-12-26T18:41:17.787Z,16.42
2022-12-26T18:46:17.667Z,14.75
2022-12-26T18:48:45.787Z,16.92
2022-12-26T18:51:13.415Z,14.80
2022-12-26T18:53:40.925Z,14.80
2022-12-26T18:56:18.415Z,15.27
2022-12-26T18:58:50.035Z,16.23
2022-12-26T19:01:20.218Z,16.38
2022-12-26T19:03:48.099Z,21.23
2022-12-26T19:06:22.065Z,18.30
2022-12-26T19:08:49.450Z,21.27
2022-12-26T19:11:16.614Z,26.70
2022-12-26T19:13:44.097Z,18.38
2022-12-26T19:16:11.453Z,20.48
2022-12-26T19:18:38.993Z,19.50
2022-12-26T19:21:14.696Z,23.95
2022-12-26T19:23:42.803Z,21.35
2022-12-26T19:26:11.740Z,20.42
2022-12-26T19:28:40.177Z,22.90
2022-12-26T19:31:13.927Z,24.25
2022-12-26T19:33:41.459Z,20.35
2022-12-26T19:36:09.695Z,18.70
2022-12-26T19:38:37.820Z,21.17
2022-12-26T19:41:10.894Z,51.50
2022-12-26T19:43:39.003Z,18.35
2022-12-26T19:46:09.483Z,21.35
2022-12-26T19:48:37.927Z,17.83
2022-12-26T19:51:13.655Z,25.88
2022-12-26T19:53:42.157Z,20.13
2022-12-26T19:56:15.167Z,23.35
2022-12-26T19:58:43.280Z,24.73
2022-12-26T20:01:16.374Z,24.88
2022-12-26T20:03:45.692Z,29.70
2022-12-26T20:06:15.695Z,26.23
2022-12-26T20:08:44.590Z,45.10
2022-12-26T20:11:17.374Z,93.80
2022-12-26T20:13:45.529Z,33.20
2022-12-26T20:16:45.793Z,25.77
2022-12-26T20:19:03.571Z,23.05
2022-12-26T20:21:30.926Z,24.73
2022-12-26T20:23:59.964Z,34.55
2022-12-26T20:26:28.858Z,22.02
2022-12-26T20:28:58.547Z,21.40
2022-12-26T20:31:25.719Z,18.85
2022-12-26T20:33:53.661Z,21.20
2022-12-26T20:36:26.501Z,25.33
2022-12-26T20:38:56.509Z,19.83
2022-12-26T20:41:24.905Z,23.55
2022-12-26T20:43:53.138Z,19.40
2022-12-26T20:46:27.886Z,21.13
2022-12-26T20:48:55.958Z,19.40
2022-12-26T20:51:36.474Z,19.92
2022-12-26T20:54:06.977Z,18.45
2022-12-26T20:56:36.079Z,15.40
2022-12-26T20:59:04.611Z,14.93
2022-12-26T21:01:31.893Z,17.58
2022-12-26T21:04:00.129Z,18.75
2022-12-26T21:06:34.081Z,18.73
2022-12-26T21:09:02.433Z,17.95
2022-12-26T21:11:32.377Z,15.82
2022-12-26T21:14:02.921Z,18.40
2022-12-26T21:16:34.762Z,18.20
2022-12-26T21:19:02.947Z,18.50
2022-12-26T21:21:32.995Z,15.50
2022-12-26T21:24:02.896Z,14.52
2022-12-26T21:26:30.656Z,17.45
2022-12-26T21:29:00.179Z,19.80
2022-12-26T21:31:28.625Z,15.93
2022-12-26T21:34:00.389Z,17.30
2022-12-26T21:36:28.427Z,29.05
2022-12-26T21:38:57.405Z,23.33
2022-12-26T21:41:25.701Z,24.65
2022-12-26T21:43:56.056Z,30.38
2022-12-26T21:46:23.229Z,18.17
2022-12-26T21:48:50.645Z,20.73
2022-12-26T21:51:19.243Z,24.80
2022-12-26T21:53:47.386Z,27.70
2022-12-26T21:56:16.666Z,28.27
2022-12-26T21:59:03.556Z,23.88
2022-12-26T22:01:31.156Z,26.70
2022-12-26T22:04:17.305Z,22.50
2022-12-26T22:06:44.437Z,22.52
2022-12-26T22:09:12.098Z,38.45
2022-12-26T22:11:57.955Z,27.25
2022-12-26T22:14:25.490Z,30.30
2022-12-26T22:16:54.026Z,25.98
2022-12-26T22:19:24.997Z,17.88
2022-12-26T22:21:53.248Z,17.35
2022-12-26T22:24:21.844Z,21.60
2022-12-26T22:26:49.540Z,23.98
2022-12-26T22:29:17.062Z,22.13
2022-12-26T22:31:44.299Z,19.73
2022-12-26T22:34:13.861Z,23.30
2022-12-26T22:36:41.700Z,24.02
2022-12-26T22:39:16.298Z,30.50
2022-12-26T22:41:45.788Z,47.33
2022-12-26T22:44:14.036Z,37.50
2022-12-26T22:46:41.900Z,27.88
2022-12-26T22:49:09.551Z,17.52
2022-12-26T22:51:36.878Z,17.27
2022-12-26T22:54:04.464Z,11.55
2022-12-26T22:56:33.676Z,18.73
2022-12-26T22:59:02.942Z,28.00
2022-12-26T23:01:30.531Z,87.20
2022-12-26T23:03:59.987Z,57.67
2022-12-26T23:06:37.006Z,18.05
2022-12-26T23:09:06.883Z,16.40
2022-12-26T23:11:36.240Z,20.40
2022-12-26T23:14:05.526Z,13.52
2022-12-26T23:16:50.910Z,52.85
2022-12-26T23:20:05.389Z,27.63
2022-12-26T23:22:33.111Z,31.92
2022-12-26T23:25:00.693Z,14.55
2022-12-26T23:27:47.635Z,12.98
2022-12-26T23:30:18.193Z,32.80
2022-12-26T23:32:53.030Z,29.42
2022-12-26T23:35:22.321Z,34.13
2022-12-26T23:37:49.968Z,29.58
2022-12-26T23:40:18.991Z,18.55
2022-12-26T23:42:46.902Z,16.95
2022-12-26T23:45:15.182Z,35.78
2022-12-26T23:47:44.884Z,35.90
2022-12-26T23:50:14.195Z,21.90
2022-12-26T23:52:41.489Z,26.48
2022-12-26T23:55:09.614Z,18.38
2022-12-26T23:57:36.724Z,17.13
